Time;durP1;ratioP1;P1;durP2;ratioP2;P2;SDS_P1;SDS_P2;PMS_P1;PMS_P2;Temp;Humidity;BMP_temperature;BMP_pressure;BME280_temperature;BME280_humidity;BME280_pressure;Samples;Min_cycle;Max_cycle;Signal;HPM_P1;HPM_P2
2023/02/07 00:00:04;;;;;;;18.27;8.60;;;;;;;;;;5086274;28;20423;-46
2023/02/07 00:02:31;;;;;;;17.60;8.15;;;;;;;;;;5085994;28;20407;-47
2023/02/07 00:04:59;;;;;;;18.45;8.85;;;;;;;;;;5086545;28;20028;-49
2023/02/07 00:07:24;;;;;;;26.20;9.35;;;;;;;;;;5081624;28;20024;-47
2023/02/07 00:09:50;;;;;;;16.23;8.15;;;;;;;;;;5086701;28;20040;-47
2023/02/07 00:12:17;;;;;;;15.55;7.18;;;;;;;;;;5086198;28;20024;-46
2023/02/07 00:14:44;;;;;;;18.20;8.73;;;;;;;;;;5086246;28;20278;-46
2023/02/07 00:17:10;;;;;;;19.33;8.00;;;;;;;;;;5086235;28;20035;-47
2023/02/07 00:19:36;;;;;;;18.30;8.80;;;;;;;;;;5086514;28;20028;-47
2023/02/07 00:22:02;;;;;;;17.23;8.13;;;;;;;;;;5086427;28;20506;-46
2023/02/07 00:24:29;;;;;;;21.00;8.07;;;;;;;;;;5086016;28;20028;-48
2023/02/07 00:26:55;;;;;;;14.77;7.63;;;;;;;;;;5086510;28;20374;-46
2023/02/07 00:29:21;;;;;;;14.40;6.85;;;;;;;;;;5085740;28;20047;-46
2023/02/07 00:31:47;;;;;;;12.30;6.55;;;;;;;;;;5086237;28;20444;-46
2023/02/07 00:34:14;;;;;;;12.27;6.72;;;;;;;;;;5085496;28;20027;-46
2023/02/07 00:36:40;;;;;;;11.25;6.10;;;;;;;;;;5086071;28;20028;-47
2023/02/07 00:39:16;;;;;;;9.30;5.63;;;;;;;;;;5085776;28;20244;-46
2023/02/07 00:41:44;;;;;;;10.40;5.90;;;;;;;;;;5084871;28;20107;-46
2023/02/07 00:44:11;;;;;;;9.02;5.15;;;;;;;;;;5085792;28;20017;-45
2023/02/07 00:46:38;;;;;;;9.25;5.45;;;;;;;;;;5086385;28;20495;-46
2023/02/07 00:49:04;;;;;;;6.78;4.47;;;;;;;;;;5086176;28;20024;-47
2023/02/07 00:51:32;;;;;;;7.35;4.55;;;;;;;;;;5086098;28;20028;-45
2023/02/07 00:53:58;;;;;;;8.45;4.80;;;;;;;;;;5081412;28;20024;-46
2023/02/07 00:56:25;;;;;;;6.30;4.18;;;;;;;;;;5081730;28;20024;-46
2023/02/07 00:58:52;;;;;;;7.35;4.50;;;;;;;;;;5087446;28;20039;-46
2023/02/07 01:01:19;;;;;;;8.00;4.93;;;;;;;;;;5088423;28;20028;-47
2023/02/07 01:03:46;;;;;;;5.53;3.80;;;;;;;;;;5088063;28;20046;-48
2023/02/07 06:10:28;;;;;;;5.53;3.92;;;;;;;;;;5084208;28;20051;-47
2023/02/07 06:12:54;;;;;;;5.68;3.55;;;;;;;;;;5085255;28;20068;-46
2023/02/07 06:15:19;;;;;;;5.57;3.92;;;;;;;;;;5086608;28;20508;-46
2023/02/07 06:17:47;;;;;;;5.63;3.45;;;;;;;;;;5087429;28;20028;-50
2023/02/07 06:20:13;;;;;;;6.65;3.88;;;;;;;;;;5086922;28;20043;-48
2023/02/07 06:22:39;;;;;;;5.03;3.90;;;;;;;;;;5086242;28;20020;-46
2023/02/07 06:25:07;;;;;;;6.07;3.55;;;;;;;;;;5086675;28;20035;-48
2023/02/07 06:27:33;;;;;;;6.55;4.40;;;;;;;;;;5086531;28;20055;-46
2023/02/07 06:30:00;;;;;;;6.40;4.20;;;;;;;;;;5086797;28;20109;-46
2023/02/07 06:32:26;;;;;;;8.50;4.57;;;;;;;;;;5086069;28;20028;-47
2023/02/07 06:34:53;;;;;;;8.32;4.45;;;;;;;;;;5086601;28;20043;-50
2023/02/07 06:37:19;;;;;;;6.75;4.53;;;;;;;;;;5087418;28;20058;-47
2023/02/07 06:39:45;;;;;;;7.78;5.55;;;;;;;;;;5092640;28;20541;-46
2023/02/07 06:42:11;;;;;;;7.78;4.88;;;;;;;;;;5091846;28;20094;-48
2023/02/07 06:44:37;;;;;;;6.57;5.03;;;;;;;;;;5087231;28;20103;-46
2023/02/07 06:47:03;;;;;;;8.27;4.97;;;;;;;;;;5096065;28;20031;-48
2023/02/07 06:49:29;;;;;;;9.38;5.70;;;;;;;;;;5087134;28;20421;-46
2023/02/07 06:51:55;;;;;;;9.35;6.32;;;;;;;;;;5091376;28;20107;-49
2023/02/07 06:54:21;;;;;;;8.50;6.10;;;;;;;;;;5088110;28;20062;-46
2023/02/07 06:56:47;;;;;;;14.07;9.05;;;;;;;;;;5088163;28;20026;-49
2023/02/07 06:59:13;;;;;;;11.27;7.85;;;;;;;;;;5087800;28;20130;-50
2023/02/07 07:01:40;;;;;;;11.60;7.40;;;;;;;;;;5086875;28;20028;-45
2023/02/07 07:04:06;;;;;;;10.52;7.38;;;;;;;;;;5083792;28;20019;-47
2023/02/07 07:06:32;;;;;;;10.32;6.68;;;;;;;;;;5097732;28;20123;-47
2023/02/07 07:08:58;;;;;;;9.43;6.57;;;;;;;;;;5095224;28;20071;-47
2023/02/07 07:11:24;;;;;;;7.35;5.82;;;;;;;;;;5087519;28;20466;-46
2023/02/07 07:13:50;;;;;;;7.22;5.00;;;;;;;;;;5087378;28;20525;-46
2023/02/07 07:16:16;;;;;;;6.72;4.82;;;;;;;;;;5087744;28;20036;-48
2023/02/07 07:18:42;;;;;;;8.65;5.60;;;;;;;;;;5087680;28;20036;-46
2023/02/07 07:21:08;;;;;;;9.13;5.53;;;;;;;;;;5087651;28;20032;-47
2023/02/07 07:23:35;;;;;;;7.68;5.13;;;;;;;;;;5087481;28;20115;-46
2023/02/07 07:26:01;;;;;;;7.78;5.43;;;;;;;;;;5087327;28;20047;-46
2023/02/07 07:28:27;;;;;;;8.50;6.00;;;;;;;;;;5087243;28;20115;-47
2023/02/07 07:30:53;;;;;;;8.82;5.40;;;;;;;;;;5087552;28;20043;-48
2023/02/07 07:33:19;;;;;;;8.52;5.50;;;;;;;;;;5087638;28;20502;-47
2023/02/07 07:35:45;;;;;;;8.43;5.72;;;;;;;;;;5087101;28;20028;-48
2023/02/07 07:38:11;;;;;;;8.13;5.25;;;;;;;;;;5086287;28;20392;-49
2023/02/07 07:40:38;;;;;;;7.10;4.90;;;;;;;;;;5088345;28;20074;-47
2023/02/07 07:43:04;;;;;;;7.97;5.40;;;;;;;;;;5089310;28;20457;-48
2023/02/07 07:45:30;;;;;;;8.40;5.75;;;;;;;;;;5088541;28;20482;-47
2023/02/07 07:47:56;;;;;;;7.03;4.80;;;;;;;;;;5086992;28;20028;-50
2023/02/07 07:50:22;;;;;;;6.40;4.40;;;;;;;;;;5089080;28;20035;-50
2023/02/07 07:52:48;;;;;;;9.50;5.45;;;;;;;;;;5089643;28;20054;-47
2023/02/07 07:55:14;;;;;;;9.77;5.55;;;;;;;;;;5087992;28;20027;-49
2023/02/07 07:57:40;;;;;;;12.30;6.55;;;;;;;;;;5088748;28;20028;-48
2023/02/07 08:00:07;;;;;;;11.85;6.70;;;;;;;;;;5089669;28;20024;-47
2023/02/07 08:02:33;;;;;;;10.52;6.18;;;;;;;;;;5089369;28;20032;-47
2023/02/07 08:04:59;;;;;;;8.88;5.70;;;;;;;;;;5087751;28;20043;-50
2023/02/07 08:07:25;;;;;;;7.85;4.90;;;;;;;;;;5086185;28;20032;-46
2023/02/07 08:09:51;;;;;;;7.47;5.00;;;;;;;;;;5086537;28;20384;-49
2023/02/07 08:12:17;;;;;;;7.28;4.70;;;;;;;;;;5088832;28;20028;-47
2023/02/07 08:14:43;;;;;;;7.35;4.65;;;;;;;;;;5088190;28;20074;-48
2023/02/07 08:17:09;;;;;;;8.80;5.55;;;;;;;;;;5065443;28;20601;-47
2023/02/07 08:19:37;;;;;;;7.18;5.10;;;;;;;;;;5086135;28;20510;-49
2023/02/07 08:22:03;;;;;;;7.97;5.43;;;;;;;;;;5088024;28;20036;-50
2023/02/07 08:24:29;;;;;;;7.10;4.57;;;;;;;;;;5069266;28;20028;-49
2023/02/07 08:26:55;;;;;;;6.32;4.35;;;;;;;;;;5089020;28;20024;-47
2023/02/07 08:29:21;;;;;;;6.95;4.97;;;;;;;;;;5088966;28;20024;-48
2023/02/07 08:31:48;;;;;;;6.97;4.30;;;;;;;;;;5088985;28;20059;-48
2023/02/07 08:34:14;;;;;;;7.22;4.57;;;;;;;;;;5087784;28;20032;-49
2023/02/07 08:36:40;;;;;;;7.22;4.80;;;;;;;;;;5088610;28;20570;-49
2023/02/07 08:39:06;;;;;;;6.55;4.35;;;;;;;;;;5088870;28;20483;-48
2023/02/07 08:41:32;;;;;;;6.63;4.30;;;;;;;;;;5069921;28;20028;-50
2023/02/07 08:43:58;;;;;;;6.78;4.43;;;;;;;;;;5088714;28;20380;-47
2023/02/07 08:46:24;;;;;;;6.70;4.45;;;;;;;;;;5089381;28;20028;-46
2023/02/07 08:48:50;;;;;;;7.05;4.53;;;;;;;;;;5070856;28;20502;-46
2023/02/07 08:51:16;;;;;;;6.60;4.28;;;;;;;;;;5088963;28;20410;-49
2023/02/07 08:53:42;;;;;;;6.53;4.35;;;;;;;;;;5089077;28;20085;-46
2023/02/07 08:56:08;;;;;;;5.28;3.67;;;;;;;;;;5088631;28;20101;-46
2023/02/07 08:58:34;;;;;;;7.00;4.18;;;;;;;;;;5085854;28;20055;-50
2023/02/07 09:01:00;;;;;;;6.50;4.05;;;;;;;;;;5088304;28;20106;-52
2023/02/07 09:03:27;;;;;;;6.75;4.22;;;;;;;;;;5090481;28;20024;-48
2023/02/07 09:05:57;;;;;;;6.05;4.00;;;;;;;;;;5089545;28;20024;-48
2023/02/07 09:08:23;;;;;;;6.72;4.30;;;;;;;;;;5089528;28;20024;-47
2023/02/07 09:10:49;;;;;;;6.75;4.28;;;;;;;;;;5089574;28;20042;-48
2023/02/07 09:13:15;;;;;;;5.90;3.67;;;;;;;;;;5089424;28;20472;-48
2023/02/07 09:15:41;;;;;;;7.18;4.10;;;;;;;;;;5090310;28;20032;-47
2023/02/07 09:18:07;;;;;;;5.63;3.70;;;;;;;;;;5085776;28;20099;-48
2023/02/07 09:20:33;;;;;;;6.07;3.80;;;;;;;;;;5086729;28;20079;-47
2023/02/07 09:23:18;;;;;;;5.35;3.85;;;;;;;;;;5089424;28;20526;-48
2023/02/07 09:25:45;;;;;;;6.68;4.43;;;;;;;;;;5089853;28;20035;-48
2023/02/07 09:28:11;;;;;;;7.18;4.57;;;;;;;;;;5087718;28;20036;-48
2023/02/07 09:30:39;;;;;;;6.95;4.53;;;;;;;;;;5089079;28;20047;-50
2023/02/07 09:33:05;;;;;;;7.88;5.38;;;;;;;;;;5090313;28;20028;-49
2023/02/07 09:35:35;;;;;;;6.30;4.35;;;;;;;;;;5089579;28;20020;-48
2023/02/07 09:38:01;;;;;;;6.15;4.25;;;;;;;;;;5088279;28;20106;-47
2023/02/07 09:40:27;;;;;;;6.88;4.53;;;;;;;;;;5086887;28;20115;-49
2023/02/07 09:42:53;;;;;;;6.88;4.13;;;;;;;;;;5087042;28;20028;-48
2023/02/07 09:45:21;;;;;;;5.50;3.80;;;;;;;;;;5087984;28;20482;-50
2023/02/07 09:47:49;;;;;;;6.03;4.03;;;;;;;;;;5088019;28;20016;-46
2023/02/07 09:50:28;;;;;;;5.90;3.90;;;;;;;;;;5087752;28;20106;-46
2023/02/07 09:52:56;;;;;;;6.07;3.83;;;;;;;;;;5087133;28;20097;-52
2023/02/07 09:55:28;;;;;;;5.70;4.07;;;;;;;;;;5087650;28;20130;-47
2023/02/07 09:57:59;;;;;;;7.15;4.40;;;;;;;;;;5087039;28;20510;-49
2023/02/07 10:00:25;;;;;;;6.50;4.18;;;;;;;;;;5087166;28;20024;-48
2023/02/07 10:02:53;;;;;;;6.72;4.45;;;;;;;;;;5087061;28;20036;-47
2023/02/07 10:05:21;;;;;;;5.63;3.92;;;;;;;;;;5089169;28;20383;-48
2023/02/07 10:07:48;;;;;;;5.05;3.47;;;;;;;;;;5088723;28;20020;-48
2023/02/07 10:10:23;;;;;;;5.25;3.60;;;;;;;;;;5087179;28;20035;-49
2023/02/07 10:13:04;;;;;;;5.25;3.78;;;;;;;;;;5073682;28;20929;-50
2023/02/07 10:15:30;;;;;;;4.18;3.30;;;;;;;;;;5082831;28;20024;-50
2023/02/07 10:18:02;;;;;;;5.18;3.80;;;;;;;;;;5087079;28;20036;-46
2023/02/07 10:20:28;;;;;;;4.72;3.40;;;;;;;;;;5094690;28;20618;-48
2023/02/07 10:23:10;;;;;;;5.43;3.22;;;;;;;;;;5087230;28;20044;-49
2023/02/07 10:25:42;;;;;;;5.47;3.47;;;;;;;;;;5086952;28;20157;-47
2023/02/07 10:28:14;;;;;;;4.22;3.33;;;;;;;;;;5090454;28;20037;-50
2023/02/07 10:30:45;;;;;;;5.38;3.60;;;;;;;;;;5108158;28;20478;-48
2023/02/07 10:33:37;;;;;;;4.22;3.30;;;;;;;;;;5089390;28;20035;-49
2023/02/07 10:36:06;;;;;;;5.03;3.45;;;;;;;;;;5083497;28;20165;-50
2023/02/07 10:38:45;;;;;;;5.00;3.20;;;;;;;;;;5087664;28;20417;-49
2023/02/07 10:41:30;;;;;;;5.85;3.60;;;;;;;;;;5084253;28;20024;-51
2023/02/07 10:43:56;;;;;;;6.10;3.47;;;;;;;;;;5087309;28;20036;-49
2023/02/07 10:46:22;;;;;;;5.22;3.22;;;;;;;;;;5087240;28;20020;-49
2023/02/07 10:48:48;;;;;;;3.75;2.72;;;;;;;;;;5086889;28;20390;-50
2023/02/07 10:51:33;;;;;;;4.38;3.15;;;;;;;;;;5087060;28;20917;-48
2023/02/07 10:54:08;;;;;;;6.30;3.40;;;;;;;;;;5087223;28;20046;-49
2023/02/07 10:56:39;;;;;;;5.30;3.38;;;;;;;;;;5087642;28;20028;-51
2023/02/07 10:59:06;;;;;;;5.55;3.55;;;;;;;;;;5086164;28;20060;-49
2023/02/07 11:01:33;;;;;;;4.50;3.20;;;;;;;;;;5085649;28;20028;-47
2023/02/07 11:03:59;;;;;;;10.48;5.68;;;;;;;;;;5088706;28;20629;-48
2023/02/07 11:06:25;;;;;;;9.73;5.45;;;;;;;;;;5085968;28;20552;-48
2023/02/07 11:09:10;;;;;;;7.80;4.82;;;;;;;;;;5086042;28;20028;-48
2023/02/07 11:11:39;;;;;;;8.35;4.85;;;;;;;;;;5066316;28;20082;-50
2023/02/07 11:14:06;;;;;;;10.07;5.70;;;;;;;;;;5068703;28;20040;-49
2023/02/07 11:16:32;;;;;;;8.50;5.38;;;;;;;;;;5069753;28;20502;-48
2023/02/07 11:18:59;;;;;;;10.25;6.20;;;;;;;;;;5073045;28;20085;-48
2023/02/07 11:21:38;;;;;;;14.60;8.00;;;;;;;;;;5088785;28;20034;-49
2023/02/07 11:24:12;;;;;;;16.80;9.32;;;;;;;;;;5088402;28;20028;-48
2023/02/07 11:27:01;;;;;;;14.25;7.53;;;;;;;;;;5083790;28;20024;-49
2023/02/07 11:29:28;;;;;;;12.20;7.47;;;;;;;;;;5088186;28;20495;-50
2023/02/07 11:31:56;;;;;;;11.68;6.90;;;;;;;;;;5089818;28;20032;-52
2023/02/07 11:34:25;;;;;;;8.25;5.70;;;;;;;;;;5088652;28;20024;-48
2023/02/07 11:36:51;;;;;;;9.40;5.50;;;;;;;;;;5091605;28;20036;-46
2023/02/07 11:39:21;;;;;;;7.90;4.68;;;;;;;;;;5089749;28;20348;-50
2023/02/07 11:42:01;;;;;;;10.23;5.75;;;;;;;;;;5076114;28;20035;-48
2023/02/07 11:44:29;;;;;;;9.30;5.85;;;;;;;;;;5087318;28;20570;-48
2023/02/07 11:46:57;;;;;;;8.23;5.75;;;;;;;;;;5084951;28;20032;-49
2023/02/07 11:49:25;;;;;;;7.68;4.82;;;;;;;;;;5088345;28;20089;-50
2023/02/07 11:51:54;;;;;;;6.05;4.63;;;;;;;;;;5090134;28;20085;-48
2023/02/07 11:54:20;;;;;;;5.97;3.97;;;;;;;;;;5090172;28;20417;-49
2023/02/07 11:56:52;;;;;;;5.00;3.83;;;;;;;;;;5089569;28;20147;-51
2023/02/07 11:59:22;;;;;;;6.57;4.45;;;;;;;;;;5078880;28;20028;-49
2023/02/07 12:01:56;;;;;;;7.15;4.72;;;;;;;;;;5090298;28;20021;-50
2023/02/07 12:04:27;;;;;;;7.88;5.15;;;;;;;;;;5089849;28;20320;-49
2023/02/07 12:07:06;;;;;;;6.57;4.22;;;;;;;;;;5089660;28;20056;-51
2023/02/07 12:09:44;;;;;;;6.45;4.18;;;;;;;;;;5088721;28;20082;-48
2023/02/07 12:12:15;;;;;;;5.82;4.13;;;;;;;;;;5090335;28;20028;-48
2023/02/07 12:14:47;;;;;;;5.68;4.10;;;;;;;;;;5075454;28;20045;-51
2023/02/07 12:17:17;;;;;;;5.15;3.63;;;;;;;;;;5090315;28;20697;-49
2023/02/07 12:19:55;;;;;;;5.10;3.72;;;;;;;;;;5089885;28;20028;-50
2023/02/07 12:22:23;;;;;;;6.45;4.53;;;;;;;;;;5090274;28;20026;-51
2023/02/07 12:24:57;;;;;;;5.45;3.92;;;;;;;;;;5089015;28;20030;-51
2023/02/07 12:27:28;;;;;;;10.15;6.18;;;;;;;;;;5085398;28;20048;-50
2023/02/07 12:29:57;;;;;;;6.93;5.07;;;;;;;;;;5088479;28;20043;-52
2023/02/07 12:32:42;;;;;;;7.35;4.82;;;;;;;;;;5101482;28;20031;-49
2023/02/07 12:35:14;;;;;;;5.93;4.30;;;;;;;;;;5080632;28;20089;-49
2023/02/07 12:37:40;;;;;;;6.45;4.45;;;;;;;;;;5088455;28;20031;-48
2023/02/07 12:40:24;;;;;;;6.95;4.40;;;;;;;;;;5088235;28;20032;-47
2023/02/07 12:43:09;;;;;;;6.00;4.10;;;;;;;;;;5088270;28;20024;-48
2023/02/07 12:45:51;;;;;;;6.05;4.47;;;;;;;;;;5088948;28;20152;-48
2023/02/07 12:48:32;;;;;;;5.97;4.45;;;;;;;;;;5087002;28;20020;-51
2023/02/07 12:51:17;;;;;;;6.53;4.60;;;;;;;;;;5087832;28;20063;-47
2023/02/07 12:53:44;;;;;;;6.82;4.68;;;;;;;;;;5085388;28;20081;-47
2023/02/07 12:56:16;;;;;;;6.50;4.70;;;;;;;;;;5086205;28;20107;-47
2023/02/07 12:58:42;;;;;;;6.38;4.10;;;;;;;;;;5086663;28;20816;-50
2023/02/07 13:01:23;;;;;;;7.10;4.32;;;;;;;;;;5087642;28;20032;-50
2023/02/07 13:04:08;;;;;;;5.95;4.05;;;;;;;;;;5085913;28;20514;-50
2023/02/07 13:06:37;;;;;;;7.10;4.82;;;;;;;;;;5097742;28;20032;-48
2023/02/07 13:09:21;;;;;;;6.18;4.07;;;;;;;;;;5083022;28;20048;-48
2023/02/07 13:11:47;;;;;;;;;;;;;;;;;;5068330;28;20118;-51
2023/02/07 13:14:28;;;;;;;6.97;4.95;;;;;;;;;;5086616;28;20006;-50
2023/02/07 13:17:07;;;;;;;6.65;4.53;;;;;;;;;;5085079;28;20042;-47
2023/02/07 13:19:34;;;;;;;5.07;3.63;;;;;;;;;;5101625;28;20822;-48
2023/02/07 13:22:07;;;;;;;4.90;3.65;;;;;;;;;;5106294;28;20401;-52
2023/02/07 13:24:35;;;;;;;4.18;3.33;;;;;;;;;;5087492;28;20423;-50
2023/02/07 13:27:02;;;;;;;6.38;3.85;;;;;;;;;;5085826;28;20032;-48
2023/02/07 13:29:30;;;;;;;7.40;4.50;;;;;;;;;;5089410;28;20035;-51
2023/02/07 13:31:58;;;;;;;6.60;4.10;;;;;;;;;;5072818;28;20036;-49
2023/02/07 13:34:30;;;;;;;5.40;3.45;;;;;;;;;;5100963;28;20024;-49
2023/02/07 13:36:56;;;;;;;4.55;3.25;;;;;;;;;;5086568;28;20032;-48
2023/02/07 13:39:31;;;;;;;5.13;3.20;;;;;;;;;;5078212;28;20043;-51
2023/02/07 13:42:06;;;;;;;4.30;3.30;;;;;;;;;;5083575;28;20035;-49
2023/02/07 13:44:35;;;;;;;4.30;3.20;;;;;;;;;;5091004;28;20032;-46
2023/02/07 13:47:12;;;;;;;4.18;3.15;;;;;;;;;;5079411;28;20032;-48
2023/02/07 13:50:14;;;;;;;3.30;2.60;;;;;;;;;;5089992;28;20062;-49
2023/02/07 13:52:42;;;;;;;5.32;3.45;;;;;;;;;;5022903;28;20075;-52
2023/02/07 13:55:16;;;;;;;3.97;2.92;;;;;;;;;;5062009;28;20043;-50
2023/02/07 14:00:28;;;;;;;3.55;2.70;;;;;;;;;;5085219;28;20082;-49
2023/02/07 14:03:02;;;;;;;3.78;2.90;;;;;;;;;;5087361;28;20161;-49
2023/02/07 14:05:28;;;;;;;;;;;;;;;;;;5098036;28;20028;-52
2023/02/07 14:07:56;;;;;;;3.95;2.92;;;;;;;;;;5086086;28;19912;-47
2023/02/07 14:10:38;;;;;;;4.18;3.00;;;;;;;;;;5064258;28;20586;-51
2023/02/07 14:13:04;;;;;;;3.80;2.80;;;;;;;;;;5083483;28;20034;-52
2023/02/07 14:15:30;;;;;;;3.65;2.53;;;;;;;;;;5085648;28;20450;-52
2023/02/07 14:17:56;;;;;;;3.92;2.70;;;;;;;;;;5099312;28;20027;-51
2023/02/07 14:20:34;;;;;;;6.97;4.05;;;;;;;;;;5098018;28;20047;-52
2023/02/07 14:23:00;;;;;;;4.53;3.60;;;;;;;;;;5085111;28;20024;-52
2023/02/07 14:25:29;;;;;;;5.70;3.45;;;;;;;;;;5085027;28;20032;-51
2023/02/07 14:28:08;;;;;;;4.25;3.10;;;;;;;;;;5083164;28;20031;-51
2023/02/07 14:30:37;;;;;;;5.63;3.10;;;;;;;;;;5086522;28;20048;-49
2023/02/07 14:33:06;;;;;;;3.72;2.70;;;;;;;;;;5085344;28;20150;-50
2023/02/07 14:35:33;;;;;;;3.63;2.50;;;;;;;;;;5083407;28;20499;-51
2023/02/07 14:37:59;;;;;;;3.92;2.70;;;;;;;;;;5086078;28;20036;-50
2023/02/07 14:40:31;;;;;;;5.03;3.22;;;;;;;;;;5085900;28;20497;-51
2023/02/07 14:42:57;;;;;;;4.88;2.95;;;;;;;;;;5086426;28;20360;-51
2023/02/07 14:45:24;;;;;;;3.83;2.75;;;;;;;;;;5086374;28;20035;-50
2023/02/07 14:47:50;;;;;;;4.90;3.35;;;;;;;;;;5087634;28;20390;-49
2023/02/07 14:50:22;;;;;;;4.10;2.60;;;;;;;;;;5090205;28;20123;-50
2023/02/07 14:52:48;;;;;;;3.80;2.63;;;;;;;;;;5090343;28;20028;-49
2023/02/07 14:55:16;;;;;;;3.70;2.80;;;;;;;;;;5090310;28;20043;-48
2023/02/07 14:57:48;;;;;;;3.13;2.60;;;;;;;;;;5086446;28;20035;-49
2023/02/07 15:00:22;;;;;;;5.97;2.88;;;;;;;;;;5087856;28;20028;-51
2023/02/07 15:02:48;;;;;;;3.13;2.72;;;;;;;;;;5088676;28;20536;-51
2023/02/07 15:05:17;;;;;;;3.90;2.33;;;;;;;;;;5089474;28;20098;-47
2023/02/07 15:07:45;;;;;;;2.80;2.50;;;;;;;;;;5089589;28;20024;-48
2023/02/07 15:10:22;;;;;;;3.30;2.55;;;;;;;;;;5089959;28;20024;-51
2023/02/07 15:12:49;;;;;;;2.72;2.20;;;;;;;;;;5090214;28;20071;-50
2023/02/07 15:15:23;;;;;;;3.35;2.80;;;;;;;;;;5086772;28;20099;-48
2023/02/07 15:17:50;;;;;;;3.50;2.60;;;;;;;;;;5088964;28;20071;-47
2023/02/07 15:20:18;;;;;;;4.38;2.60;;;;;;;;;;5087859;28;20510;-49
2023/02/07 15:22:49;;;;;;;2.97;2.30;;;;;;;;;;5086929;28;20028;-49
2023/02/07 15:25:16;;;;;;;2.70;2.20;;;;;;;;;;5085863;28;20030;-52
2023/02/07 15:27:57;;;;;;;3.38;2.63;;;;;;;;;;5088592;28;20039;-51
2023/02/07 15:30:23;;;;;;;3.28;2.17;;;;;;;;;;5087432;28;20483;-49
2023/02/07 15:32:49;;;;;;;2.95;2.50;;;;;;;;;;5089230;28;20078;-49
2023/02/07 15:35:25;;;;;;;3.38;2.35;;;;;;;;;;5088305;28;20063;-48
2023/02/07 15:37:52;;;;;;;3.33;2.58;;;;;;;;;;5088574;28;20047;-49
2023/02/07 15:40:20;;;;;;;3.42;2.55;;;;;;;;;;5090007;28;20390;-52
2023/02/07 15:42:55;;;;;;;3.65;2.55;;;;;;;;;;5096369;28;20035;-48
2023/02/07 15:45:25;;;;;;;3.10;2.60;;;;;;;;;;5089095;28;20099;-51
2023/02/07 15:47:58;;;;;;;3.50;2.50;;;;;;;;;;5089021;28;20024;-49
2023/02/07 15:50:25;;;;;;;3.13;2.47;;;;;;;;;;5087808;28;20518;-50
2023/02/07 15:52:52;;;;;;;2.92;2.35;;;;;;;;;;5088454;28;20036;-50
2023/02/07 15:55:25;;;;;;;3.63;2.55;;;;;;;;;;5070019;28;20463;-51
2023/02/07 15:57:52;;;;;;;3.25;2.92;;;;;;;;;;5084463;28;20032;-51
2023/02/07 16:00:18;;;;;;;2.90;2.50;;;;;;;;;;5067429;28;20028;-48
2023/02/07 16:02:47;;;;;;;4.18;2.45;;;;;;;;;;5083540;28;20031;-47
2023/02/07 16:05:21;;;;;;;3.55;2.63;;;;;;;;;;5079941;28;20028;-48
2023/02/07 16:07:48;;;;;;;;;;;;;;;;;;5083939;28;20067;-48
2023/02/07 16:10:34;;;;;;;6.78;4.57;;;;;;;;;;5088369;28;19908;-47
2023/02/07 16:13:01;;;;;;;7.85;5.32;;;;;;;;;;5069738;28;20044;-50
2023/02/07 16:15:28;;;;;;;6.75;5.22;;;;;;;;;;5089214;28;20046;-49
2023/02/07 16:17:54;;;;;;;11.30;7.80;;;;;;;;;;5089974;28;20028;-49
2023/02/07 16:20:20;;;;;;;9.38;6.10;;;;;;;;;;5082137;28;20043;-50
2023/02/07 16:22:47;;;;;;;9.80;6.53;;;;;;;;;;5089670;28;20024;-47
2023/02/07 16:25:20;;;;;;;12.35;7.80;;;;;;;;;;5089814;28;20028;-47
2023/02/07 16:27:48;;;;;;;10.77;7.83;;;;;;;;;;5089981;28;20028;-49
2023/02/07 16:30:19;;;;;;;9.35;6.40;;;;;;;;;;5089913;28;20032;-48
2023/02/07 16:32:46;;;;;;;8.00;5.70;;;;;;;;;;5089347;28;20067;-51
2023/02/07 16:35:19;;;;;;;7.70;5.75;;;;;;;;;;5089467;28;20035;-48
2023/02/07 16:37:45;;;;;;;7.80;5.95;;;;;;;;;;5089616;28;20039;-48
2023/02/07 16:40:12;;;;;;;8.68;6.10;;;;;;;;;;5089029;28;20104;-47
2023/02/07 16:42:38;;;;;;;7.82;5.55;;;;;;;;;;5089233;28;20070;-49
2023/02/07 16:45:05;;;;;;;7.43;5.07;;;;;;;;;;5091368;28;20107;-49
2023/02/07 16:47:31;;;;;;;7.43;4.95;;;;;;;;;;5089320;28;20543;-48
2023/02/07 16:49:57;;;;;;;8.00;5.47;;;;;;;;;;5089358;28;20055;-48
2023/02/07 16:52:23;;;;;;;5.65;4.72;;;;;;;;;;5070957;28;20111;-48
2023/02/07 16:54:49;;;;;;;4.93;3.95;;;;;;;;;;5088367;28;20053;-49
2023/02/07 16:57:15;;;;;;;5.20;4.05;;;;;;;;;;5089380;28;20065;-49
2023/02/07 16:59:41;;;;;;;4.97;3.60;;;;;;;;;;5084551;28;20035;-49
2023/02/07 17:02:13;;;;;;;8.00;4.50;;;;;;;;;;5086581;28;20047;-49
2023/02/07 17:04:39;;;;;;;6.95;4.78;;;;;;;;;;5087727;28;20047;-49
2023/02/07 17:07:05;;;;;;;7.40;4.70;;;;;;;;;;5086106;28;20106;-50
2023/02/07 17:09:31;;;;;;;9.38;5.75;;;;;;;;;;5087464;28;20489;-53
2023/02/07 17:11:57;;;;;;;9.65;5.85;;;;;;;;;;5088836;28;20063;-50
2023/02/07 17:14:23;;;;;;;11.23;7.07;;;;;;;;;;5088754;28;20039;-51
2023/02/07 17:16:50;;;;;;;9.77;6.13;;;;;;;;;;5087322;28;20511;-49
2023/02/07 17:19:21;;;;;;;8.52;5.60;;;;;;;;;;5086128;28;20020;-48
2023/02/07 17:21:48;;;;;;;9.55;5.95;;;;;;;;;;5087557;28;20032;-49
2023/02/07 17:24:14;;;;;;;10.02;6.57;;;;;;;;;;5087658;28;20028;-48
2023/02/07 17:26:45;;;;;;;7.85;5.10;;;;;;;;;;5088101;28;20113;-51
2023/02/07 17:29:13;;;;;;;8.93;4.80;;;;;;;;;;5087382;28;20016;-51
2023/02/07 17:31:39;;;;;;;6.65;4.57;;;;;;;;;;5087043;28;20058;-48
2023/02/07 17:34:05;;;;;;;7.50;5.03;;;;;;;;;;5086947;28;20032;-48
2023/02/07 17:36:33;;;;;;;8.93;5.38;;;;;;;;;;5087391;28;20101;-49
2023/02/07 17:38:59;;;;;;;7.43;5.13;;;;;;;;;;5087265;28;20511;-50
2023/02/07 17:41:26;;;;;;;7.25;4.97;;;;;;;;;;5087010;28;20077;-50
2023/02/07 17:43:52;;;;;;;5.35;4.10;;;;;;;;;;5087845;28;20032;-49
2023/02/07 17:46:22;;;;;;;7.18;4.72;;;;;;;;;;5085632;28;20024;-48
2023/02/07 17:48:49;;;;;;;5.85;4.07;;;;;;;;;;5087117;28;20055;-49
2023/02/07 17:51:16;;;;;;;9.65;5.40;;;;;;;;;;5084764;28;20477;-49
2023/02/07 17:53:43;;;;;;;7.70;4.88;;;;;;;;;;5087075;28;20106;-48
2023/02/07 17:56:29;;;;;;;10.15;6.55;;;;;;;;;;5087054;28;20025;-48
2023/02/07 17:58:58;;;;;;;10.00;6.30;;;;;;;;;;5088752;28;20054;-48
2023/02/07 18:01:24;;;;;;;11.35;7.50;;;;;;;;;;5084501;28;20390;-51
2023/02/07 18:03:52;;;;;;;13.00;7.78;;;;;;;;;;5085190;28;20419;-49
2023/02/07 18:06:19;;;;;;;11.48;7.32;;;;;;;;;;5082548;28;20073;-50
2023/02/07 18:08:45;;;;;;;13.63;7.78;;;;;;;;;;5097980;28;20043;-49
2023/02/07 18:11:13;;;;;;;11.60;6.85;;;;;;;;;;5077723;28;20435;-49
2023/02/07 18:13:41;;;;;;;11.95;6.90;;;;;;;;;;5085422;28;20066;-51
2023/02/07 18:16:07;;;;;;;9.73;6.28;;;;;;;;;;5093869;28;20224;-51
2023/02/07 18:18:34;;;;;;;8.90;5.70;;;;;;;;;;5103118;28;20032;-52
2023/02/07 18:21:02;;;;;;;11.45;6.75;;;;;;;;;;5083295;28;20538;-50
2023/02/07 18:23:28;;;;;;;8.77;5.55;;;;;;;;;;5079761;28;20142;-51
2023/02/07 18:25:54;;;;;;;8.52;5.18;;;;;;;;;;5083511;28;20423;-50
2023/02/07 18:28:20;;;;;;;9.80;5.60;;;;;;;;;;5065303;28;20027;-48
2023/02/07 18:30:46;;;;;;;9.48;5.82;;;;;;;;;;5082728;28;20036;-54
2023/02/07 18:33:15;;;;;;;8.18;5.05;;;;;;;;;;5082933;28;20322;-53
2023/02/07 18:35:41;;;;;;;8.88;5.45;;;;;;;;;;5083845;28;20058;-49
2023/02/07 18:38:08;;;;;;;8.73;5.50;;;;;;;;;;5083439;28;20105;-50
2023/02/07 18:40:35;;;;;;;8.30;5.35;;;;;;;;;;5083790;28;20449;-49
2023/02/07 18:43:01;;;;;;;8.27;4.88;;;;;;;;;;5082681;28;20036;-51
2023/02/07 18:45:27;;;;;;;8.73;5.60;;;;;;;;;;5077586;28;20352;-50
2023/02/07 18:47:53;;;;;;;7.90;5.55;;;;;;;;;;5066612;28;20059;-51
2023/02/07 18:50:19;;;;;;;11.23;6.68;;;;;;;;;;5076495;28;20522;-49
2023/02/07 18:52:45;;;;;;;12.32;7.72;;;;;;;;;;5083375;28;20073;-50
2023/02/07 18:55:12;;;;;;;13.65;8.40;;;;;;;;;;5083216;28;20035;-52
2023/02/07 18:57:38;;;;;;;14.32;9.32;;;;;;;;;;5081670;28;20032;-51
2023/02/07 19:00:06;;;;;;;12.88;8.27;;;;;;;;;;5081676;28;20082;-51
2023/02/07 19:02:32;;;;;;;14.18;9.18;;;;;;;;;;5082098;28;20058;-53
2023/02/07 19:04:58;;;;;;;12.40;7.95;;;;;;;;;;5078582;28;20016;-50
2023/02/07 19:07:24;;;;;;;12.20;7.72;;;;;;;;;;5083070;28;20020;-49
2023/02/07 19:09:51;;;;;;;11.98;7.97;;;;;;;;;;5083044;28;20456;-51
2023/02/07 19:12:17;;;;;;;10.52;6.80;;;;;;;;;;5082491;28;20404;-50
2023/02/07 19:14:43;;;;;;;10.85;6.88;;;;;;;;;;5083010;28;20020;-52
2023/02/07 19:17:09;;;;;;;10.30;6.43;;;;;;;;;;5082304;28;20248;-50
2023/02/07 19:19:36;;;;;;;10.80;6.65;;;;;;;;;;5090293;28;20036;-49
2023/02/07 19:22:02;;;;;;;8.82;5.95;;;;;;;;;;5081591;28;20031;-52
2023/02/07 19:24:28;;;;;;;13.07;7.80;;;;;;;;;;5082295;28;20020;-50
2023/02/07 19:26:55;;;;;;;12.13;7.15;;;;;;;;;;5082682;28;20034;-49
2023/02/07 19:29:26;;;;;;;10.57;7.03;;;;;;;;;;5081392;28;20027;-49
2023/02/07 19:32:04;;;;;;;11.38;7.00;;;;;;;;;;5064256;28;20047;-49
2023/02/07 19:34:31;;;;;;;7.90;5.90;;;;;;;;;;5083579;28;20028;-48
2023/02/07 19:36:57;;;;;;;10.52;7.15;;;;;;;;;;5067695;28;20028;-52
2023/02/07 19:39:24;;;;;;;12.57;7.88;;;;;;;;;;5087350;28;20551;-49
2023/02/07 19:41:51;;;;;;;11.52;7.28;;;;;;;;;;5086379;28;20388;-52
2023/02/07 19:44:17;;;;;;;12.30;8.18;;;;;;;;;;5086724;28;20047;-50
2023/02/07 19:46:43;;;;;;;12.80;7.75;;;;;;;;;;5087231;28;20024;-52
2023/02/07 19:49:10;;;;;;;12.45;7.88;;;;;;;;;;5068288;28;20047;-51
2023/02/07 19:51:36;;;;;;;11.50;7.80;;;;;;;;;;5086361;28;20516;-53
2023/02/07 19:54:02;;;;;;;10.63;6.68;;;;;;;;;;5086902;28;20028;-51
2023/02/07 19:56:32;;;;;;;11.60;7.32;;;;;;;;;;5086878;28;20072;-51